Terminal Aerodrome Forecast
Issued by NWS Sioux Falls, SD

Home | Current Version | Previous Version | Text Only | Print | Product List | Glossary On
Versions: 1 2 3 4 5 6 7 8 9 10 11 12 13 14
000
FTUS43 KFSD 191100
TAFHON
TAF
KHON 191131Z 1912/2012 32014KT P6SM BKN120
      TEMPO 1912/1913 VRB20G30KT P6SM -SHRA
     FM191300 31009KT P6SM BKN140
     FM191900 27007KT P6SM SCT150
     FM200100 VRB03KT P6SM SKC=

USA.gov is the U.S. government's official web portal to all federal, state and local government web resources and services.